Time;durP1;ratioP1;P1;durP2;ratioP2;P2;SDS_P1;SDS_P2;PMS_P1;PMS_P2;Temp;Humidity;BMP_temperature;BMP_pressure;BME280_temperature;BME280_humidity;BME280_pressure;Samples;Min_cycle;Max_cycle;Signal;HPM_P1;HPM_P2
2022/11/12 00:02:25;;;;;;;79.15;76.20;;;;;;;5.91;100.00;103107.09;5077523;28;20048;-73
2022/11/12 00:04:50;;;;;;;65.35;62.70;;;;;;;5.69;100.00;103080.94;5058744;28;20060;-73
2022/11/12 00:07:15;;;;;;;64.03;61.22;;;;;;;5.74;100.00;103089.44;5044181;28;20032;-73
2022/11/12 00:09:41;;;;;;;67.57;64.80;;;;;;;5.82;100.00;103102.25;5027759;28;20513;-73
2022/11/12 00:12:06;;;;;;;70.70;68.05;;;;;;;5.82;100.00;103105.72;5058349;28;20056;-73
2022/11/12 00:14:31;;;;;;;61.85;59.25;;;;;;;5.78;100.00;103102.38;5074390;28;20052;-73
2022/11/12 00:16:57;;;;;;;61.65;59.17;;;;;;;5.75;100.00;103096.41;5059748;28;20073;-73
2022/11/12 00:19:22;;;;;;;70.07;67.25;;;;;;;5.79;100.00;103100.59;5077243;28;20112;-73
2022/11/12 00:21:48;;;;;;;70.70;67.68;;;;;;;5.81;100.00;103101.38;5076530;28;20059;-73
2022/11/12 00:24:13;;;;;;;67.35;64.15;;;;;;;5.84;100.00;103095.19;5057344;28;20039;-73
2022/11/12 00:26:38;;;;;;;67.28;64.63;;;;;;;5.73;100.00;103087.75;5058322;28;20124;-73
2022/11/12 00:29:04;;;;;;;71.75;68.95;;;;;;;5.76;100.00;103096.34;5060558;28;20064;-73
2022/11/12 00:31:29;;;;;;;68.97;66.25;;;;;;;5.83;100.00;103109.19;5054780;28;20028;-73
2022/11/12 00:33:55;;;;;;;61.50;59.03;;;;;;;5.90;100.00;103110.63;5076867;28;20082;-73
2022/11/12 00:36:20;;;;;;;67.10;64.20;;;;;;;5.88;100.00;103101.97;5039703;28;20464;-73
2022/11/12 00:38:45;;;;;;;64.35;61.80;;;;;;;5.86;100.00;103103.84;5076759;28;20046;-73
2022/11/12 00:41:11;;;;;;;63.72;60.72;;;;;;;5.78;100.00;103102.38;5042386;28;20031;-73
2022/11/12 00:43:36;;;;;;;57.70;55.15;;;;;;;5.75;100.00;103099.03;5071664;28;20095;-73
2022/11/12 00:46:02;;;;;;;54.67;52.40;;;;;;;5.75;100.00;103112.97;5055179;28;20498;-73
2022/11/12 00:48:27;;;;;;;66.05;63.35;;;;;;;5.70;100.00;103111.44;5074814;28;20040;-73
2022/11/12 00:50:59;;;;;;;72.07;69.03;;;;;;;5.68;100.00;103111.53;5073123;28;20127;-73
2022/11/12 00:53:24;;;;;;;68.35;65.35;;;;;;;5.65;100.00;103106.41;5076613;28;20028;-73
2022/11/12 00:55:50;;;;;;;72.15;69.13;;;;;;;5.59;100.00;103109.28;5075976;28;20360;-73
2022/11/12 00:58:15;;;;;;;70.18;66.70;;;;;;;5.55;100.00;103111.19;5060077;28;20024;-73
2022/11/12 01:00:41;;;;;;;71.80;68.85;;;;;;;5.62;100.00;103105.66;5056294;28;20503;-72
2022/11/12 01:03:06;;;;;;;67.65;64.97;;;;;;;5.65;100.00;103116.88;5056427;28;20053;-72
2022/11/12 01:05:32;;;;;;;71.07;67.93;;;;;;;5.63;100.00;103108.22;5057479;28;20064;-72
2022/11/12 01:07:58;;;;;;;74.65;71.78;;;;;;;5.53;100.00;103101.66;5077187;28;20388;-73
2022/11/12 01:10:23;;;;;;;79.32;75.90;;;;;;;5.48;100.00;103101.00;5057252;28;20039;-73
2022/11/12 01:12:48;;;;;;;78.20;75.03;;;;;;;5.36;100.00;103078.78;5043276;28;20237;-73
2022/11/12 01:15:14;;;;;;;78.85;75.53;;;;;;;5.39;100.00;103088.28;5057066;28;20037;-73
2022/11/12 01:17:39;;;;;;;86.22;82.63;;;;;;;5.56;100.00;103115.50;5039725;28;20091;-73
2022/11/12 01:20:05;;;;;;;87.78;83.88;;;;;;;5.59;100.00;103122.38;5076839;28;20046;-73
2022/11/12 01:22:30;;;;;;;80.43;77.43;;;;;;;5.59;100.00;103117.13;5076840;28;20031;-73
2022/11/12 01:24:56;;;;;;;83.57;80.15;;;;;;;5.54;100.00;103106.84;5057045;28;20028;-73
2022/11/12 01:27:21;;;;;;;95.47;91.95;;;;;;;5.54;100.00;103108.59;5075465;28;20072;-73
2022/11/12 01:29:46;;;;;;;82.75;79.60;;;;;;;5.52;100.00;103100.81;5058941;28;20450;-73
2022/11/12 01:32:12;;;;;;;90.63;87.22;;;;;;;5.54;100.00;103114.69;5075012;28;20032;-73
2022/11/12 01:34:37;;;;;;;79.22;75.85;;;;;;;5.52;100.00;103131.41;5075181;28;20115;-73
2022/11/12 01:37:02;;;;;;;84.18;80.88;;;;;;;5.44;100.00;103118.59;5056413;28;20064;-73
2022/11/12 01:39:28;;;;;;;78.47;75.45;;;;;;;5.40;100.00;103122.25;5057275;28;20028;-73
2022/11/12 01:41:53;;;;;;;86.10;82.68;;;;;;;5.42;100.00;103122.19;5073562;28;20107;-73
2022/11/12 01:44:21;;;;;;;75.55;72.45;;;;;;;5.38;100.00;103118.84;5074895;28;20027;-73
2022/11/12 01:46:58;;;;;;;68.97;66.25;;;;;;;5.36;100.00;103121.53;5073737;28;20490;-73
2022/11/12 01:49:45;;;;;;;86.82;83.43;;;;;;;5.37;100.00;103132.84;5074343;28;20028;-73
2022/11/12 01:52:44;;;;;;;65.28;62.85;;;;;;;5.33;100.00;103126.00;5075648;28;20032;-73
2022/11/12 01:55:15;;;;;;;65.22;62.42;;;;;;;5.29;100.00;103125.31;5050936;28;20039;-73
2022/11/12 01:57:54;;;;;;;71.37;68.43;;;;;;;5.30;100.00;103124.38;5074299;28;20029;-73
2022/11/12 02:00:19;;;;;;;74.72;71.75;;;;;;;5.27;100.00;103116.66;5072717;28;20376;-73
2022/11/12 02:02:51;;;;;;;75.10;72.00;;;;;;;5.35;100.00;103129.44;5059591;28;20143;-73
2022/11/12 02:05:19;;;;;;;72.30;69.43;;;;;;;5.32;100.00;103130.41;5061409;28;20036;-73
2022/11/12 02:07:45;;;;;;;68.95;66.13;;;;;;;5.22;100.00;103123.81;5062524;28;20104;-73
2022/11/12 02:10:11;;;;;;;70.70;67.95;;;;;;;5.21;100.00;103109.03;5078380;28;20062;-72
2022/11/12 02:15:21;;;;;;;61.20;58.72;;;;;;;5.12;100.00;103085.84;5080682;28;20039;-73
2022/11/12 02:17:46;;;;;;;65.43;62.58;;;;;;;5.22;100.00;103108.09;5079029;28;20024;-73
2022/11/12 02:20:13;;;;;;;63.28;60.67;;;;;;;5.19;100.00;103100.38;5061973;28;20127;-73
2022/11/12 02:22:38;;;;;;;71.65;68.80;;;;;;;5.21;100.00;103103.78;5080797;28;20028;-73
2022/11/12 02:25:05;;;;;;;75.28;72.45;;;;;;;5.27;100.00;103105.31;5061969;28;20036;-73
2022/11/12 02:27:30;;;;;;;70.03;67.10;;;;;;;5.09;100.00;103085.94;5077608;28;20036;-73
2022/11/12 02:29:55;;;;;;;73.95;70.22;;;;;;;5.24;100.00;103110.66;5059845;28;20043;-73
2022/11/12 02:32:21;;;;;;;79.35;76.13;;;;;;;5.22;100.00;103102.88;5060306;28;20773;-73
2022/11/12 02:34:46;;;;;;;74.82;71.97;;;;;;;5.33;100.00;103116.41;5062859;28;20036;-74
2022/11/12 02:37:11;;;;;;;72.00;69.00;;;;;;;5.34;100.00;103105.03;5061925;28;20071;-73
2022/11/12 02:39:37;;;;;;;67.35;64.65;;;;;;;5.17;100.00;103093.50;5060806;28;20035;-73
2022/11/12 02:42:03;;;;;;;61.20;58.80;;;;;;;5.15;100.00;103097.03;5076579;28;20036;-73
2022/11/12 02:44:29;;;;;;;66.35;62.92;;;;;;;5.20;100.00;103111.69;5079657;28;20454;-73
2022/11/12 02:46:55;;;;;;;65.63;62.97;;;;;;;5.25;100.00;103120.25;5040756;28;20492;-73
2022/11/12 02:49:20;;;;;;;64.15;61.70;;;;;;;5.06;100.00;103093.91;5080372;28;20063;-73
2022/11/12 02:51:45;;;;;;;66.25;63.47;;;;;;;5.08;100.00;103100.78;5043281;28;20039;-73
2022/11/12 02:54:11;;;;;;;65.78;63.00;;;;;;;5.11;100.00;103119.00;5078957;28;20028;-73
2022/11/12 02:56:36;;;;;;;61.65;59.22;;;;;;;5.19;100.00;103139.66;5057335;28;20119;-73
2022/11/12 02:59:01;;;;;;;63.28;60.72;;;;;;;5.21;100.00;103137.84;5060144;28;20056;-73
2022/11/12 03:01:27;;;;;;;59.58;57.05;;;;;;;5.15;100.00;103127.59;5078660;28;20137;-74
2022/11/12 03:03:52;;;;;;;64.80;61.97;;;;;;;5.09;100.00;103105.09;5059260;28;20052;-74
2022/11/12 03:06:18;;;;;;;65.70;63.08;;;;;;;5.07;100.00;103104.31;5077255;28;20033;-73
2022/11/12 03:08:43;;;;;;;72.32;69.40;;;;;;;5.05;100.00;103100.03;5077787;28;20484;-74
2022/11/12 03:11:12;;;;;;;62.08;59.13;;;;;;;5.06;100.00;103104.38;5077355;28;20484;-73
2022/11/12 03:13:37;;;;;;;72.22;69.22;;;;;;;5.02;100.00;103106.25;5043910;28;20029;-73
2022/11/12 03:16:03;;;;;;;64.47;61.78;;;;;;;4.90;100.00;103094.50;5076647;28;20050;-73
2022/11/12 03:18:29;;;;;;;72.07;69.22;;;;;;;4.90;100.00;103093.63;5061029;28;20398;-74
2022/11/12 03:20:55;;;;;;;72.15;69.10;;;;;;;4.94;100.00;103109.19;5074646;28;20217;-73
2022/11/12 03:23:20;;;;;;;69.07;66.45;;;;;;;4.88;100.00;103117.25;5078120;28;20107;-73
2022/11/12 03:25:46;;;;;;;70.75;68.03;;;;;;;4.83;100.00;103108.69;5043671;28;20040;-73
2022/11/12 03:28:14;;;;;;;75.75;72.63;;;;;;;4.78;100.00;103107.19;5043976;28;20031;-73
2022/11/12 03:30:41;;;;;;;69.28;66.47;;;;;;;4.78;100.00;103128.97;5060585;28;20025;-73
2022/11/12 03:33:08;;;;;;;72.15;68.95;;;;;;;4.76;100.00;103146.47;5079445;28;20479;-73
2022/11/12 03:35:34;;;;;;;68.65;66.00;;;;;;;4.73;100.00;103138.75;5075685;28;20024;-73
2022/11/12 03:38:01;;;;;;;75.18;72.13;;;;;;;4.58;100.00;103110.53;5043523;28;20395;-73
2022/11/12 03:40:27;;;;;;;73.47;70.60;;;;;;;4.65;100.00;103112.84;5059946;28;20016;-74
2022/11/12 03:42:53;;;;;;;73.32;70.28;;;;;;;4.62;100.00;103105.13;5078339;28;20050;-74
2022/11/12 03:45:20;;;;;;;71.35;68.50;;;;;;;4.63;100.00;103119.06;5077873;28;20073;-73
2022/11/12 03:47:48;;;;;;;66.07;63.22;;;;;;;4.47;100.00;103109.16;5077703;28;20034;-73
2022/11/12 03:50:15;;;;;;;67.13;64.25;;;;;;;4.59;100.00;103143.63;5077554;28;20036;-73
2022/11/12 03:52:45;;;;;;;60.05;57.60;;;;;;;4.57;100.00;103124.50;5076043;28;20028;-73
2022/11/12 03:55:12;;;;;;;40.58;38.83;;;;;;;4.58;100.00;103131.47;5061918;28;20028;-73
2022/11/12 03:57:38;;;;;;;30.73;29.35;;;;;;;4.43;100.00;103107.56;5075782;28;20030;-72
2022/11/12 04:00:05;;;;;;;28.88;27.42;;;;;;;4.44;100.00;103119.72;5077926;28;20028;-74
2022/11/12 04:02:31;;;;;;;27.70;25.95;;;;;;;4.50;100.00;103135.19;5059352;28;20044;-73
2022/11/12 04:10:24;;;;;;;32.88;30.95;;;;;;;4.46;100.00;103112.66;5077932;28;20381;-72
2022/11/12 04:15:33;;;;;;;30.40;28.52;;;;;;;4.43;100.00;103115.41;5076012;28;20105;-72
2022/11/12 04:23:27;;;;;;;34.58;32.97;;;;;;;4.38;100.00;103114.72;5075790;28;20067;-73
2022/11/12 04:28:36;;;;;;;34.22;32.65;;;;;;;4.30;100.00;103109.75;5060817;28;20622;-73
2022/11/12 04:31:02;;;;;;;38.72;36.92;;;;;;;4.21;100.00;103096.16;5056174;28;20060;-73
2022/11/12 04:33:27;;;;;;;38.15;36.28;;;;;;;4.39;100.00;103126.03;5057956;28;20127;-73
2022/11/12 04:35:52;;;;;;;38.90;36.95;;;;;;;4.40;100.00;103123.38;5076206;28;20036;-73
2022/11/12 04:38:18;;;;;;;42.78;40.83;;;;;;;4.44;100.00;103130.19;5041385;28;20039;-73
2022/11/12 04:46:11;;;;;;;31.05;29.27;;;;;;;4.33;100.00;103117.50;5076611;28;20113;-74
2022/11/12 04:48:36;;;;;;;32.70;31.02;;;;;;;4.42;100.00;103129.41;5042450;28;20036;-73
2022/11/12 04:52:03;;;;;;;37.78;35.72;;;;;;;4.39;100.00;103131.25;5075030;28;20068;-73
2022/11/12 04:53:52;;;;;;;28.10;26.50;;;;;;;4.39;100.00;103123.41;5075375;28;20040;-72
2022/11/12 04:56:17;;;;;;;33.00;31.40;;;;;;;4.25;100.00;103103.81;5059640;28;20388;-72
2022/11/12 04:58:42;;;;;;;33.15;31.52;;;;;;;4.30;100.00;103111.50;5043124;28;20024;-72
2022/11/12 05:01:08;;;;;;;28.08;26.48;;;;;;;4.24;100.00;103116.94;5058388;28;20024;-72
2022/11/12 05:03:33;;;;;;;32.45;30.58;;;;;;;4.27;100.00;103116.84;5057724;28;20091;-72
2022/11/12 05:06:49;;;;;;;29.50;28.13;;;;;;;4.11;100.00;103098.22;5073758;28;20059;-72
2022/11/12 05:08:49;;;;;;;27.15;25.77;;;;;;;4.20;100.00;103125.78;5073629;28;20036;-72
2022/11/12 05:11:14;;;;;;;32.30;30.88;;;;;;;4.14;100.00;103134.72;5041566;28;20034;-72
2022/11/12 05:13:40;;;;;;;35.05;33.40;;;;;;;4.13;100.00;103136.44;5077551;28;20031;-72
2022/11/12 05:16:05;;;;;;;38.50;36.75;;;;;;;4.11;100.00;103127.81;5077413;28;20621;-72
2022/11/12 05:18:31;;;;;;;41.40;39.63;;;;;;;4.16;100.00;103125.06;5056021;28;20115;-72
2022/11/12 05:20:56;;;;;;;41.53;38.90;;;;;;;4.17;100.00;103115.47;5077343;28;20056;-72
2022/11/12 05:23:21;;;;;;;41.72;39.92;;;;;;;4.21;100.00;103112.69;5056569;28;20070;-72
2022/11/12 05:25:46;;;;;;;44.63;42.03;;;;;;;4.17;100.00;103126.75;5074510;28;20047;-74
2022/11/12 05:28:12;;;;;;;42.60;40.67;;;;;;;4.16;100.00;103139.88;5074755;28;20075;-72
2022/11/12 05:30:37;;;;;;;45.13;43.05;;;;;;;4.15;100.00;103148.63;5057352;28;20470;-72
2022/11/12 05:33:02;;;;;;;41.25;39.42;;;;;;;4.17;100.00;103141.59;5071493;28;20024;-72
2022/11/12 05:35:28;;;;;;;41.65;39.85;;;;;;;4.15;100.00;103128.56;5057966;28;20610;-72
2022/11/12 05:37:53;;;;;;;43.42;41.47;;;;;;;4.13;100.00;103133.00;5056721;28;20336;-72
2022/11/12 05:40:18;;;;;;;43.28;41.40;;;;;;;4.03;100.00;103134.19;5050495;28;20025;-73
2022/11/12 05:42:44;;;;;;;31.58;30.13;;;;;;;4.10;100.00;103149.63;5056169;28;20035;-73
2022/11/12 05:45:09;;;;;;;27.05;25.38;;;;;;;4.08;100.00;103154.06;5074908;28;20091;-73
2022/11/12 05:47:35;;;;;;;22.88;21.27;;;;;;;4.04;100.00;103152.44;5072950;28;20032;-73
2022/11/12 05:50:00;;;;;;;22.35;21.13;;;;;;;4.05;100.00;103148.06;5074218;28;20031;-73
2022/11/12 05:52:25;;;;;;;16.58;15.38;;;;;;;4.03;100.00;103140.31;5070507;28;20479;-73
2022/11/12 05:54:51;;;;;;;17.60;16.45;;;;;;;4.08;100.00;103143.59;5040949;28;20043;-73
2022/11/12 05:57:16;;;;;;;18.70;17.73;;;;;;;4.29;100.00;103164.69;5039320;28;20072;-73
2022/11/12 05:59:41;;;;;;;18.38;17.27;;;;;;;4.38;100.00;103169.63;5068965;28;20055;-73
2022/11/12 06:02:07;;;;;;;18.73;17.08;;;;;;;4.41;100.00;103166.88;5056457;28;20071;-73
2022/11/12 06:04:32;;;;;;;19.70;18.30;;;;;;;4.42;100.00;103150.31;5072248;28;20072;-73
2022/11/12 06:06:57;;;;;;;17.60;16.50;;;;;;;4.47;100.00;103161.44;5071488;28;20070;-73
2022/11/12 06:09:23;;;;;;;19.10;17.80;;;;;;;4.51;100.00;103173.50;5051535;28;20097;-73
2022/11/12 06:11:48;;;;;;;17.60;16.35;;;;;;;4.39;100.00;103158.25;5072014;28;20089;-73
2022/11/12 06:14:13;;;;;;;17.55;16.20;;;;;;;4.52;100.00;103169.97;5037499;28;20115;-73
2022/11/12 06:16:39;;;;;;;14.23;13.38;;;;;;;4.57;100.00;103166.34;5073084;28;20110;-73
2022/11/12 06:19:04;;;;;;;15.82;14.65;;;;;;;4.53;100.00;103166.47;5067475;28;20127;-74
2022/11/12 06:21:29;;;;;;;14.98;13.65;;;;;;;4.48;100.00;103157.91;5052198;28;20514;-74
2022/11/12 06:23:57;;;;;;;13.05;10.35;;;;;;;4.43;100.00;103152.00;5048962;28;20066;-74
2022/11/12 06:26:25;;;;;;;10.48;9.77;;;;;;;4.48;100.00;103167.53;5051998;28;20243;-75
2022/11/12 06:28:50;;;;;;;10.60;9.85;;;;;;;4.35;100.00;103148.78;5070420;28;20369;-74
2022/11/12 06:31:17;;;;;;;11.05;10.25;;;;;;;4.16;100.00;103121.56;5070207;28;20079;-75
2022/11/12 06:33:43;;;;;;;10.70;9.93;;;;;;;4.23;100.00;103136.16;5049475;28;20403;-75
2022/11/12 06:36:10;;;;;;;13.02;11.85;;;;;;;4.28;100.00;103149.91;5050836;28;20067;-75
2022/11/12 06:38:38;;;;;;;11.10;10.15;;;;;;;4.25;100.00;103156.09;5070728;28;20427;-74
2022/11/12 06:41:06;;;;;;;12.57;11.38;;;;;;;4.24;100.00;103153.53;5051884;28;20029;-75
2022/11/12 06:43:32;;;;;;;15.43;10.20;;;;;;;4.24;100.00;103149.16;5054081;28;20024;-75
2022/11/12 06:46:02;;;;;;;11.80;10.90;;;;;;;4.10;100.00;103136.56;5072476;28;20295;-75
2022/11/12 06:48:28;;;;;;;11.18;10.32;;;;;;;4.04;100.00;103138.53;5071449;28;20074;-74
2022/11/12 06:50:54;;;;;;;10.48;9.57;;;;;;;4.01;100.00;103142.13;5077015;28;20081;-74
2022/11/12 06:53:19;;;;;;;11.05;10.02;;;;;;;4.05;100.00;103154.19;5056924;28;20445;-75
2022/11/12 06:55:45;;;;;;;11.30;10.23;;;;;;;4.07;100.00;103157.59;5040196;28;20119;-75
2022/11/12 06:58:10;;;;;;;11.95;10.93;;;;;;;3.99;100.00;103149.16;5075798;28;20058;-75
2022/11/12 07:00:35;;;;;;;10.07;9.38;;;;;;;4.10;100.00;103152.25;5074031;28;20077;-75
2022/11/12 07:03:05;;;;;;;9.85;8.95;;;;;;;4.16;100.00;103140.75;5059077;28;20040;-75
2022/11/12 07:05:31;;;;;;;10.00;9.10;;;;;;;4.19;100.00;103134.56;5076077;28;20021;-75
2022/11/12 07:07:56;;;;;;;9.55;8.80;;;;;;;4.22;100.00;103155.34;5058726;28;20043;-75
2022/11/12 07:10:21;;;;;;;10.23;9.60;;;;;;;4.24;100.00;103161.38;5042688;28;20121;-75
2022/11/12 07:12:47;;;;;;;10.32;9.63;;;;;;;4.23;100.00;103157.06;5059238;28;20107;-75
2022/11/12 07:15:12;;;;;;;10.55;9.85;;;;;;;4.28;100.00;103155.16;5042776;28;20039;-75
2022/11/12 07:17:37;;;;;;;10.95;9.95;;;;;;;4.10;100.00;103126.13;5077221;28;20383;-75
2022/11/12 07:20:03;;;;;;;10.43;9.50;;;;;;;4.23;100.00;103157.91;5056205;28;20035;-74
2022/11/12 07:22:28;;;;;;;9.23;8.23;;;;;;;4.22;100.00;103176.25;5075836;28;20055;-74
2022/11/12 07:24:54;;;;;;;10.30;9.30;;;;;;;4.21;100.00;103174.56;5057814;28;20020;-74
2022/11/12 07:27:19;;;;;;;12.27;11.35;;;;;;;4.22;100.00;103176.25;5075254;28;20020;-75
2022/11/12 07:29:44;;;;;;;11.35;10.45;;;;;;;4.11;100.00;103159.16;5059385;28;20104;-75
2022/11/12 07:32:10;;;;;;;11.75;10.48;;;;;;;4.10;100.00;103174.94;5058044;28;20055;-75
2022/11/12 07:34:35;;;;;;;9.90;9.30;;;;;;;4.06;100.00;103182.00;5076173;28;20025;-75
2022/11/12 07:37:00;;;;;;;10.82;10.02;;;;;;;4.06;100.00;103194.22;5058026;28;20528;-75
2022/11/12 07:39:26;;;;;;;10.90;9.55;;;;;;;4.01;100.00;103199.59;5056534;28;20090;-75
2022/11/12 07:41:51;;;;;;;13.55;10.63;;;;;;;3.84;100.00;103170.53;5075230;28;20028;-75
2022/11/12 07:44:16;;;;;;;10.32;9.60;;;;;;;4.02;100.00;103198.69;5056920;28;20024;-75
2022/11/12 07:46:42;;;;;;;11.60;10.88;;;;;;;4.00;100.00;103187.41;5075993;28;20039;-75
2022/11/12 07:49:07;;;;;;;14.13;13.23;;;;;;;4.05;100.00;103190.75;5041615;28;20028;-75
2022/11/12 07:51:33;;;;;;;13.13;12.30;;;;;;;4.05;100.00;103187.25;5076112;28;20601;-75
2022/11/12 07:53:58;;;;;;;13.95;12.95;;;;;;;4.05;100.00;103193.38;5073958;28;20106;-75
2022/11/12 07:56:26;;;;;;;14.80;13.80;;;;;;;4.19;100.00;103199.91;5075117;28;20514;-75
2022/11/12 07:58:51;;;;;;;15.65;14.32;;;;;;;4.30;100.00;103208.25;5076568;28;20033;-75
2022/11/12 08:01:30;;;;;;;17.85;16.45;;;;;;;4.44;100.00;103206.03;5057825;28;20040;-75
2022/11/12 08:03:57;;;;;;;13.25;12.27;;;;;;;4.47;100.00;103197.22;5075407;28;20050;-74
2022/11/12 08:06:23;;;;;;;14.80;13.45;;;;;;;4.51;100.00;103207.50;5075510;28;20040;-75
2022/11/12 08:08:52;;;;;;;14.65;13.60;;;;;;;4.72;100.00;103224.19;5074554;28;20032;-74
2022/11/12 08:11:18;;;;;;;13.98;13.15;;;;;;;4.80;100.00;103229.19;5074466;28;20028;-74
2022/11/12 08:13:44;;;;;;;17.30;15.80;;;;;;;4.82;100.00;103219.53;5074866;28;20218;-75
2022/11/12 08:16:09;;;;;;;16.17;15.23;;;;;;;4.83;100.00;103222.97;5074901;28;20468;-75
2022/11/12 08:18:35;;;;;;;19.40;18.23;;;;;;;4.62;100.00;103227.22;5076709;28;20111;-75
2022/11/12 08:21:01;;;;;;;15.13;14.02;;;;;;;4.59;100.00;103222.06;5042086;28;20047;-75
2022/11/12 08:23:28;;;;;;;14.48;13.32;;;;;;;4.72;100.00;103239.06;5074320;28;20036;-76
2022/11/12 08:25:57;;;;;;;17.83;16.80;;;;;;;4.78;100.00;103244.06;5075518;28;20493;-74
2022/11/12 08:28:23;;;;;;;17.77;16.63;;;;;;;4.80;100.00;103234.41;5076822;28;20276;-75
2022/11/12 08:30:48;;;;;;;18.02;16.80;;;;;;;4.74;100.00;103232.84;5055471;28;20085;-74
2022/11/12 08:33:14;;;;;;;15.45;14.25;;;;;;;4.54;100.00;103204.78;5075290;28;20555;-74
2022/11/12 08:35:39;;;;;;;15.77;14.43;;;;;;;4.73;100.00;103225.94;5074445;28;20054;-74
2022/11/12 08:38:09;;;;;;;14.82;13.80;;;;;;;4.77;100.00;103231.91;5077144;28;20055;-74
2022/11/12 08:40:35;;;;;;;17.77;16.55;;;;;;;4.86;100.00;103254.28;5074116;28;20055;-74
2022/11/12 08:43:04;;;;;;;16.55;15.57;;;;;;;4.94;100.00;103265.31;5057831;28;20051;-74
2022/11/12 08:45:32;;;;;;;23.23;21.85;;;;;;;4.97;100.00;103256.53;5057678;28;20016;-75
2022/11/12 08:48:02;;;;;;;14.70;13.27;;;;;;;4.96;100.00;103253.03;5076170;28;20032;-75
2022/11/12 08:50:29;;;;;;;14.53;13.33;;;;;;;4.98;100.00;103260.84;5074030;28;20032;-74
2022/11/12 08:53:21;;;;;;;13.57;11.77;;;;;;;5.05;100.00;103251.84;5074585;28;20476;-75
2022/11/12 08:55:47;;;;;;;11.65;10.70;;;;;;;5.04;100.00;103242.31;5072750;28;20033;-75
2022/11/12 08:58:12;;;;;;;11.48;10.57;;;;;;;5.10;100.00;103239.47;5074134;28;20527;-75
2022/11/12 09:00:42;;;;;;;16.63;14.18;;;;;;;5.30;100.00;103262.31;5056961;28;20016;-75
2022/11/12 09:03:13;;;;;;;13.05;11.95;;;;;;;5.35;100.00;103260.38;5074634;28;20047;-75
2022/11/12 09:05:39;;;;;;;15.32;13.98;;;;;;;5.46;100.00;103263.44;5076103;28;20043;-75
2022/11/12 09:08:07;;;;;;;16.63;15.02;;;;;;;5.55;100.00;103265.72;5074659;28;20364;-74
2022/11/12 09:10:33;;;;;;;12.85;11.48;;;;;;;5.55;100.00;103267.47;5074457;28;20071;-74
2022/11/12 09:12:58;;;;;;;15.55;13.18;;;;;;;5.62;100.00;103268.09;5074691;28;20067;-75
2022/11/12 09:15:24;;;;;;;10.57;9.38;;;;;;;5.56;100.00;103274.44;5074795;28;20084;-74
2022/11/12 09:18:00;;;;;;;11.65;10.57;;;;;;;5.56;100.00;103266.56;5073706;28;20097;-75
2022/11/12 09:20:27;;;;;;;14.68;10.95;;;;;;;5.73;100.00;103293.00;5040019;28;20439;-74
2022/11/12 09:22:56;;;;;;;13.18;10.38;;;;;;;5.91;100.00;103285.31;5054810;28;20037;-76
2022/11/12 09:25:22;;;;;;;14.80;11.95;;;;;;;5.87;100.00;103263.63;5073312;28;20032;-74
2022/11/12 09:27:47;;;;;;;12.43;9.85;;;;;;;5.99;100.00;103272.81;5054284;28;20369;-74
2022/11/12 09:30:13;;;;;;;12.85;10.00;;;;;;;6.15;100.00;103273.91;5058845;28;20811;-74
2022/11/12 09:32:38;;;;;;;13.80;10.38;;;;;;;6.16;100.00;103280.00;5074267;28;20435;-74
2022/11/12 09:35:04;;;;;;;12.48;10.35;;;;;;;6.28;100.00;103297.88;5072350;28;20510;-75
2022/11/12 09:37:30;;;;;;;18.17;11.73;;;;;;;6.37;100.00;103294.00;5054122;28;20039;-75
2022/11/12 09:39:55;;;;;;;11.95;9.80;;;;;;;6.44;100.00;103287.59;5063887;28;20123;-75
2022/11/12 09:42:21;;;;;;;11.63;10.20;;;;;;;6.49;100.00;103292.66;5053241;28;20446;-75
2022/11/12 09:44:58;;;;;;;12.30;10.65;;;;;;;6.28;100.00;103253.28;5049613;28;20028;-75
2022/11/12 09:47:28;;;;;;;16.92;10.10;;;;;;;6.45;100.00;103280.59;5072118;28;20039;-75
2022/11/12 09:50:09;;;;;;;11.15;10.00;;;;;;;6.57;100.00;103286.16;5074154;28;20407;-79
2022/11/12 09:52:36;;;;;;;;;;;;;;;6.70;100.00;103288.28;5056741;28;20028;-75
2022/11/12 09:55:27;;;;;;;16.50;10.40;;;;;;;6.74;100.00;103292.50;5058128;28;19967;-76
2022/11/12 09:57:53;;;;;;;17.45;10.80;;;;;;;6.56;100.00;103237.25;5070783;28;20035;-75
2022/11/12 10:00:19;;;;;;;16.10;10.45;;;;;;;6.86;100.00;103285.84;5074035;28;20025;-75
2022/11/12 10:02:51;;;;;;;15.80;11.80;;;;;;;6.93;100.00;103284.69;5072520;28;20031;-75
2022/11/12 10:05:16;;;;;;;;;;;;;;;6.99;100.00;103287.91;5072763;28;20032;-75
2022/11/12 10:08:01;;;;;;;14.83;6.47;;;;;;;6.94;100.00;103287.22;5056451;28;19924;-75
2022/11/12 10:10:59;;;;;;;18.00;10.50;;;;;;;6.99;100.00;103284.44;5073174;28;20265;-75
2022/11/12 10:13:58;;;;;;;19.30;12.10;;;;;;;7.12;100.00;103282.97;4991905;28;20555;-75
2022/11/12 10:16:59;;;;;;;18.67;10.23;;;;;;;7.04;100.00;103271.09;4984759;28;20034;-76
2022/11/12 10:19:59;;;;;;;16.77;11.43;;;;;;;6.95;100.00;103264.47;4993543;28;20288;-76
2022/11/12 10:22:39;;;;;;;13.43;7.77;;;;;;;6.92;100.00;103247.06;4992707;28;20027;-75
2022/11/12 10:25:14;;;;;;;19.63;11.60;;;;;;;7.08;100.00;103251.66;4994796;28;20116;-75
2022/11/12 10:27:41;;;;;;;18.00;10.73;;;;;;;7.09;100.00;103250.72;4972677;28;20100;-75
2022/11/12 10:30:15;;;;;;;17.42;10.68;;;;;;;7.29;100.00;103266.44;4981307;28;20041;-75
2022/11/12 10:32:44;;;;;;;15.43;10.77;;;;;;;7.18;100.00;103248.53;4995609;28;20042;-75
2022/11/12 10:35:12;;;;;;;12.90;10.43;;;;;;;7.19;100.00;103257.28;4997125;28;20459;-75
2022/11/12 10:38:04;;;;;;;22.33;10.07;;;;;;;7.15;100.00;103272.31;4996733;28;20029;-75
2022/11/12 10:40:37;;;;;;;15.45;8.02;;;;;;;7.08;100.00;103270.03;4996312;28;20052;-75
2022/11/12 10:43:05;;;;;;;14.20;9.85;;;;;;;7.25;100.00;103266.63;4971690;28;20034;-75
2022/11/12 10:45:31;;;;;;;21.02;12.52;;;;;;;7.31;100.00;103261.13;4996465;28;20033;-76
2022/11/12 10:47:58;;;;;;;15.82;9.65;;;;;;;7.30;100.00;103262.91;4997087;28;20034;-75
2022/11/12 10:50:40;;;;;;;18.98;11.52;;;;;;;7.25;100.00;103261.38;5037833;28;20041;-75
2022/11/12 10:53:09;;;;;;;14.23;9.45;;;;;;;7.37;100.00;103261.69;5077373;28;20066;-76
2022/11/12 10:56:02;;;;;;;13.43;10.00;;;;;;;7.32;100.00;103255.81;5059942;28;20081;-76
2022/11/12 10:58:27;;;;;;;16.85;9.43;;;;;;;7.32;100.00;103253.19;5069108;28;20109;-75
2022/11/12 11:01:00;;;;;;;25.13;12.68;;;;;;;7.47;100.00;103262.13;5059274;28;20023;-75
2022/11/12 11:03:31;;;;;;;13.13;11.75;;;;;;;7.49;100.00;103256.78;5074772;28;20048;-75
2022/11/12 11:06:03;;;;;;;12.60;8.73;;;;;;;7.24;100.00;103234.28;5060533;28;20063;-75
2022/11/12 11:08:31;;;;;;;17.63;10.60;;;;;;;7.34;100.00;103240.81;5077253;28;20134;-75
2022/11/12 11:11:21;;;;;;;19.10;11.65;;;;;;;7.34;100.00;103224.22;5076223;28;20036;-76
2022/11/12 11:13:49;;;;;;;13.05;10.18;;;;;;;7.39;100.00;103230.94;5076152;28;20073;-75
2022/11/12 11:16:18;;;;;;;19.05;12.80;;;;;;;7.59;100.00;103250.19;5075759;28;20024;-75
2022/11/12 11:18:51;;;;;;;26.23;12.50;;;;;;;7.39;100.00;103228.31;5076930;28;20435;-75
2022/11/12 11:21:41;;;;;;;21.20;11.55;;;;;;;7.71;100.00;103248.75;5074604;28;20601;-75
2022/11/12 11:24:30;;;;;;;16.63;10.55;;;;;;;7.67;100.00;103245.44;5075660;28;20028;-75
2022/11/12 11:27:11;;;;;;;21.15;10.07;;;;;;;7.75;100.00;103234.53;5076196;28;20028;-75
2022/11/12 11:30:11;;;;;;;16.02;9.65;;;;;;;7.89;100.00;103247.06;5077306;28;20099;-75
2022/11/12 11:33:13;;;;;;;18.45;12.35;;;;;;;8.11;100.00;103242.44;5060888;28;20043;-75
2022/11/12 11:35:45;;;;;;;19.05;10.13;;;;;;;7.96;100.00;103240.56;5056968;28;20098;-75
2022/11/12 11:38:14;;;;;;;13.88;9.38;;;;;;;7.76;100.00;103245.00;5078556;28;20032;-76
2022/11/12 11:40:49;;;;;;;16.77;10.55;;;;;;;7.69;100.00;103240.13;5076457;28;20035;-76
2022/11/12 11:43:23;;;;;;;15.02;8.13;;;;;;;7.43;100.00;103236.94;5056814;28;20025;-76